createdAt,value
2019-05-09T00:00:14.123Z,99.99
2019-05-09T00:01:14.137Z,99.99
2019-05-09T00:02:13.744Z,99.99
2019-05-09T00:03:13.763Z,99.99
2019-05-09T00:04:13.869Z,99.99
2019-05-09T00:05:13.757Z,99.99
2019-05-09T00:06:13.528Z,99.99
2019-05-09T00:07:13.967Z,99.99
2019-05-09T00:08:13.876Z,99.99
2019-05-09T00:09:13.833Z,99.99
2019-05-09T00:10:14.185Z,99.99
2019-05-09T00:11:14.402Z,99.99
2019-05-09T00:12:14.153Z,99.99
2019-05-09T00:13:13.623Z,99.99
2019-05-09T00:14:13.538Z,99.99
2019-05-09T00:15:13.606Z,99.99
2019-05-09T00:16:14.442Z,99.99
2019-05-09T00:17:14.042Z,99.99
2019-05-09T00:18:14.182Z,99.99
2019-05-09T00:19:13.491Z,99.99
2019-05-09T00:20:13.592Z,99.99
2019-05-09T00:21:13.411Z,99.99
2019-05-09T00:22:13.541Z,99.99
2019-05-09T00:23:13.508Z,99.99
2019-05-09T00:24:13.777Z,99.99
2019-05-09T00:25:13.225Z,99.99
2019-05-09T00:26:13.353Z,99.99
2019-05-09T00:27:14.124Z,99.99
2019-05-09T00:28:13.401Z,99.99
2019-05-09T00:29:14.030Z,99.99
2019-05-09T00:30:13.931Z,99.99
2019-05-09T00:31:13.608Z,99.99
2019-05-09T00:32:13.661Z,99.99
2019-05-09T00:33:14.263Z,99.99
2019-05-09T00:34:14.333Z,99.99
2019-05-09T00:35:14.100Z,99.99
2019-05-09T00:36:14.042Z,99.99
2019-05-09T00:37:13.505Z,99.99
2019-05-09T00:38:13.245Z,99.99
2019-05-09T00:39:13.338Z,99.99
2019-05-09T00:40:13.252Z,99.99
2019-05-09T00:41:13.924Z,99.99
2019-05-09T00:42:13.648Z,99.99
2019-05-09T00:43:13.161Z,99.99
2019-05-09T00:44:13.844Z,99.99
2019-05-09T00:45:13.292Z,99.99
2019-05-09T00:46:14.088Z,99.99
2019-05-09T00:47:13.486Z,99.99
2019-05-09T00:48:14.043Z,99.99
2019-05-09T00:49:14.002Z,99.99
2019-05-09T00:50:13.178Z,99.99
2019-05-09T00:51:14.011Z,99.99
2019-05-09T00:52:13.999Z,99.99
2019-05-09T00:53:13.735Z,99.99
2019-05-09T00:54:13.460Z,99.99
2019-05-09T00:55:13.202Z,99.99
2019-05-09T00:56:13.400Z,99.99
2019-05-09T00:57:13.728Z,99.99
2019-05-09T00:58:13.519Z,99.99
2019-05-09T00:59:13.456Z,99.99
2019-05-09T01:00:14.478Z,99.99
2019-05-09T01:01:13.269Z,99.99
2019-05-09T01:02:13.137Z,99.99
2019-05-09T01:03:14.117Z,99.99
2019-05-09T01:04:13.570Z,99.99
2019-05-09T01:05:13.190Z,99.99
2019-05-09T01:06:13.357Z,99.99
2019-05-09T01:07:13.888Z,99.99
2019-05-09T01:08:13.668Z,99.99
2019-05-09T01:09:13.652Z,99.99
2019-05-09T01:10:13.328Z,99.99
2019-05-09T01:11:17.526Z,99.99
2019-05-09T01:12:13.837Z,99.99
2019-05-09T01:13:14.150Z,99.99
2019-05-09T01:14:14.152Z,99.99
2019-05-09T01:15:13.320Z,99.99
2019-05-09T01:16:13.322Z,99.99
2019-05-09T01:17:13.540Z,99.99
2019-05-09T01:18:13.204Z,99.99
2019-05-09T01:19:14.068Z,99.99
2019-05-09T01:20:14.487Z,99.99
2019-05-09T01:21:13.350Z,99.99
2019-05-09T01:22:13.158Z,99.99
2019-05-09T01:23:14.168Z,99.99
2019-05-09T01:24:13.856Z,99.99
2019-05-09T01:25:13.410Z,99.99
2019-05-09T01:26:13.159Z,99.99
2019-05-09T01:27:14.179Z,99.99
2019-05-09T01:28:13.906Z,99.99
2019-05-09T01:29:13.703Z,99.99
2019-05-09T01:30:13.494Z,99.99
2019-05-09T01:31:13.226Z,99.99
2019-05-09T01:32:14.366Z,99.99
2019-05-09T01:33:13.546Z,99.99
2019-05-09T01:34:13.299Z,99.99
2019-05-09T01:35:13.137Z,99.99
2019-05-09T01:36:14.371Z,99.99
2019-05-09T01:37:14.037Z,99.99
2019-05-09T01:38:14.154Z,99.99
2019-05-09T01:39:13.786Z,99.99
2019-05-09T01:40:13.222Z,99.99
2019-05-09T01:41:31.725Z,99.99
2019-05-09T01:42:13.724Z,99.99
2019-05-09T01:43:13.797Z,99.99
2019-05-09T01:44:13.390Z,99.99
2019-05-09T01:45:14.097Z,99.99
2019-05-09T01:46:14.190Z,99.99
2019-05-09T01:47:14.045Z,99.99
2019-05-09T01:48:13.936Z,99.99
2019-05-09T01:49:13.787Z,99.99
2019-05-09T01:50:13.983Z,99.99
2019-05-09T01:51:13.855Z,99.99
2019-05-09T01:52:13.700Z,99.99
2019-05-09T01:53:13.356Z,99.99
2019-05-09T01:54:13.230Z,99.99
2019-05-09T01:55:14.143Z,99.99
2019-05-09T01:56:13.936Z,99.99
2019-05-09T01:57:13.802Z,99.99
2019-05-09T01:58:13.848Z,99.99
2019-05-09T01:59:13.636Z,99.99
2019-05-09T02:00:13.217Z,99.99
2019-05-09T02:01:13.384Z,99.99
2019-05-09T02:02:14.156Z,99.99
2019-05-09T02:03:13.924Z,99.99
2019-05-09T02:04:13.653Z,99.99
2019-05-09T02:05:13.444Z,99.99
2019-05-09T02:06:13.597Z,99.99
2019-05-09T02:07:13.127Z,99.99
2019-05-09T02:08:13.982Z,99.99
2019-05-09T02:09:14.008Z,99.99
2019-05-09T02:10:13.880Z,99.99
2019-05-09T02:11:13.208Z,99.99
2019-05-09T02:12:14.111Z,99.99
2019-05-09T02:13:13.643Z,99.99
2019-05-09T02:14:13.441Z,99.99
2019-05-09T02:15:13.040Z,99.99
2019-05-09T02:16:13.893Z,99.99
2019-05-09T02:17:13.929Z,99.99
2019-05-09T02:18:13.692Z,99.99
2019-05-09T02:19:13.569Z,99.99
2019-05-09T02:20:13.609Z,99.99
2019-05-09T02:21:16.721Z,99.99
2019-05-09T02:22:13.055Z,99.99
2019-05-09T02:23:13.930Z,99.99
2019-05-09T02:24:14.024Z,99.99
2019-05-09T02:25:13.515Z,99.99
2019-05-09T02:26:13.510Z,99.99
2019-05-09T02:27:13.216Z,99.99
2019-05-09T02:28:14.138Z,99.99
2019-05-09T02:29:13.787Z,99.99
2019-05-09T02:30:15.109Z,99.99
2019-05-09T02:31:15.523Z,99.99
2019-05-09T02:32:14.264Z,99.99
2019-05-09T02:33:14.553Z,99.99
2019-05-09T02:34:14.728Z,99.99
2019-05-09T02:35:12.162Z,99.99
2019-05-09T02:36:12.402Z,99.99
2019-05-09T02:37:12.129Z,99.99
2019-05-09T02:38:12.227Z,99.99
2019-05-09T02:39:12.128Z,99.99
2019-05-09T02:40:12.743Z,99.99
2019-05-09T02:41:12.176Z,99.99
2019-05-09T02:42:19.518Z,99.99
2019-05-09T02:43:12.649Z,99.99
2019-05-09T02:44:12.089Z,99.99
2019-05-09T02:45:12.105Z,99.99
2019-05-09T02:46:12.527Z,99.99
2019-05-09T02:47:11.818Z,99.99
2019-05-09T02:48:11.876Z,99.99
2019-05-09T02:49:12.109Z,99.99
2019-05-09T02:50:12.561Z,99.99
2019-05-09T02:51:12.080Z,99.99
2019-05-09T02:52:11.792Z,99.99
2019-05-09T02:53:12.077Z,99.99
2019-05-09T02:54:12.355Z,99.99
2019-05-09T02:55:12.976Z,99.99
2019-05-09T02:56:12.047Z,99.99
2019-05-09T02:57:11.912Z,99.99
2019-05-09T02:58:12.025Z,99.99
2019-05-09T02:59:12.511Z,99.99
2019-05-09T03:00:11.775Z,99.99
2019-05-09T03:01:12.011Z,99.99
2019-05-09T03:02:12.260Z,99.99
2019-05-09T03:03:12.096Z,99.99
2019-05-09T03:04:12.052Z,99.99
2019-05-09T03:05:11.720Z,99.99
2019-05-09T03:06:11.974Z,99.99
2019-05-09T03:07:12.449Z,99.99
2019-05-09T03:08:12.365Z,99.99
2019-05-09T03:09:12.552Z,99.99
2019-05-09T03:10:11.955Z,99.99
2019-05-09T03:11:12.294Z,99.99
2019-05-09T03:12:34.616Z,99.99
2019-05-09T03:13:12.086Z,99.99
2019-05-09T03:14:11.687Z,99.99
2019-05-09T03:15:11.659Z,99.99
2019-05-09T03:16:11.908Z,99.99
2019-05-09T03:17:11.666Z,99.99
2019-05-09T03:18:12.051Z,99.99
2019-05-09T03:19:11.971Z,99.99
2019-05-09T03:20:12.215Z,99.99
2019-05-09T03:21:11.935Z,99.99
2019-05-09T03:22:11.892Z,99.99
2019-05-09T03:23:11.917Z,99.99
2019-05-09T03:24:12.667Z,99.99
2019-05-09T03:25:11.870Z,99.99
2019-05-09T03:26:11.850Z,99.99
2019-05-09T03:27:11.852Z,99.99
2019-05-09T03:28:12.367Z,99.99
2019-05-09T03:29:11.839Z,99.99
2019-05-09T03:30:14.737Z,99.99
2019-05-09T03:31:12.380Z,99.99
2019-05-09T03:32:11.867Z,99.99
2019-05-09T03:33:13.014Z,99.99
2019-05-09T03:34:12.274Z,99.99
2019-05-09T03:35:11.795Z,99.99
2019-05-09T03:36:11.547Z,99.99
2019-05-09T03:37:11.544Z,99.99
2019-05-09T03:38:11.517Z,99.99
2019-05-09T03:39:11.765Z,99.99
2019-05-09T03:40:11.773Z,99.99
2019-05-09T03:41:11.762Z,99.99
2019-05-09T03:42:11.753Z,99.99
2019-05-09T03:43:11.502Z,99.99
2019-05-09T03:44:11.747Z,99.99
2019-05-09T03:45:11.738Z,99.99
2019-05-09T03:46:11.729Z,99.99
2019-05-09T03:47:11.468Z,99.99
2019-05-09T03:48:11.463Z,99.99
2019-05-09T03:49:11.723Z,99.99
2019-05-09T03:50:11.708Z,99.99
2019-05-09T03:51:11.703Z,99.99
2019-05-09T03:52:11.694Z,99.99
2019-05-09T03:53:11.692Z,99.99
2019-05-09T03:54:11.731Z,99.99
2019-05-09T03:55:11.704Z,99.99
2019-05-09T03:56:11.678Z,99.99
2019-05-09T03:57:11.671Z,99.99
2019-05-09T03:58:11.665Z,99.99
2019-05-09T03:59:11.676Z,99.99
2019-05-09T04:00:11.667Z,99.99
2019-05-09T04:01:13.373Z,99.99
2019-05-09T04:02:12.774Z,99.99
2019-05-09T04:03:11.371Z,99.99
2019-05-09T04:04:11.613Z,99.99
2019-05-09T04:05:11.362Z,99.99
2019-05-09T04:06:11.636Z,99.99
2019-05-09T04:07:11.610Z,99.99
2019-05-09T04:08:11.606Z,99.99
2019-05-09T04:09:11.589Z,99.99
2019-05-09T04:10:11.582Z,99.99
2019-05-09T04:11:11.581Z,99.99
2019-05-09T04:12:11.321Z,99.99
2019-05-09T04:13:13.604Z,99.99
2019-05-09T04:14:11.306Z,99.99
2019-05-09T04:15:11.553Z,99.99
2019-05-09T04:16:11.554Z,99.99
2019-05-09T04:17:11.546Z,99.99
2019-05-09T04:18:11.548Z,99.99
2019-05-09T04:19:11.534Z,99.99
2019-05-09T04:20:11.534Z,99.99
2019-05-09T04:21:11.292Z,99.99
2019-05-09T04:22:11.269Z,99.99
2019-05-09T04:23:11.251Z,99.99
2019-05-09T04:24:11.502Z,99.99
2019-05-09T04:25:11.240Z,99.99
2019-05-09T04:26:11.230Z,99.99
2019-05-09T04:27:11.500Z,99.99
2019-05-09T04:28:11.228Z,99.99
2019-05-09T04:29:11.216Z,99.99
2019-05-09T04:30:12.014Z,99.99
2019-05-09T04:31:11.208Z,99.99
2019-05-09T04:32:11.198Z,99.99
2019-05-09T04:33:11.450Z,99.99
2019-05-09T04:34:12.332Z,99.99
2019-05-09T04:35:11.440Z,99.99
2019-05-09T04:36:11.439Z,99.99
2019-05-09T04:37:14.621Z,99.99
2019-05-09T04:38:11.179Z,99.99
2019-05-09T04:39:23.287Z,99.99
2019-05-09T04:40:11.423Z,99.99
2019-05-09T04:41:11.151Z,99.99
2019-05-09T04:42:11.142Z,99.99
2019-05-09T04:43:27.150Z,99.99
2019-05-09T04:44:21.595Z,99.99
2019-05-09T04:45:12.713Z,99.99
2019-05-09T04:46:18.494Z,97.08
2019-05-09T04:47:11.117Z,94.41
2019-05-09T04:48:18.427Z,94.03
2019-05-09T04:49:11.383Z,93.6
2019-05-09T04:50:15.277Z,90.45
2019-05-09T04:51:11.163Z,88.4
2019-05-09T04:52:11.110Z,87.15
2019-05-09T04:53:11.100Z,88.11
2019-05-09T04:54:11.355Z,87.63
2019-05-09T04:55:11.407Z,88.2
2019-05-09T04:56:11.370Z,90.07
2019-05-09T04:57:11.346Z,91.88
2019-05-09T04:58:11.780Z,92.83
2019-05-09T04:59:11.344Z,94.27
2019-05-09T05:00:12.597Z,94.56
2019-05-09T05:01:11.262Z,96.51
2019-05-09T05:02:11.089Z,95.98
2019-05-09T05:03:11.069Z,93.65
2019-05-09T05:04:11.331Z,91.74
2019-05-09T05:05:11.325Z,89.73
2019-05-09T05:06:11.317Z,90.21
2019-05-09T05:07:11.066Z,91.16
2019-05-09T05:08:11.062Z,90.54
2019-05-09T05:09:11.338Z,90.25
2019-05-09T05:10:11.634Z,89.83
2019-05-09T05:11:11.306Z,90.69
2019-05-09T05:12:11.065Z,90.88
2019-05-09T05:13:27.236Z,90.88
2019-05-09T05:14:11.806Z,91.36
2019-05-09T05:15:11.308Z,91.74
2019-05-09T05:16:11.051Z,92.79
2019-05-09T05:17:13.932Z,92.55
2019-05-09T05:18:11.047Z,93.17
2019-05-09T05:19:11.053Z,92.69
2019-05-09T05:20:11.305Z,92.26
2019-05-09T05:21:11.297Z,90.68
2019-05-09T05:22:11.296Z,85.57
2019-05-09T05:23:11.285Z,82.07
2019-05-09T05:24:11.296Z,80.06
2019-05-09T05:25:11.822Z,78.57
2019-05-09T05:26:11.892Z,77.51
2019-05-09T05:27:11.035Z,77.17
2019-05-09T05:28:11.033Z,74.82
2019-05-09T05:29:11.058Z,74.52
2019-05-09T05:30:11.022Z,73.76
2019-05-09T05:31:11.034Z,72.9
2019-05-09T05:32:11.312Z,73.47
2019-05-09T05:33:11.291Z,73.72
2019-05-09T05:34:11.282Z,72.96
2019-05-09T05:35:11.312Z,73.82
2019-05-09T05:36:11.036Z,75.12
2019-05-09T05:37:11.046Z,76.42
2019-05-09T05:38:11.292Z,78.43
2019-05-09T05:39:11.041Z,79.54
2019-05-09T05:40:11.084Z,81.07
2019-05-09T05:41:11.287Z,81.6
2019-05-09T05:42:11.029Z,83.33
2019-05-09T05:43:11.130Z,84.19
2019-05-09T05:44:11.027Z,84.81
2019-05-09T05:45:11.287Z,85.38
2019-05-09T05:46:11.041Z,85.77
2019-05-09T05:47:11.046Z,87.1
2019-05-09T05:48:11.030Z,87.06
2019-05-09T05:49:11.282Z,87.92
2019-05-09T05:50:11.275Z,88.97
2019-05-09T05:51:11.269Z,88.59
2019-05-09T05:52:11.020Z,89.59
2019-05-09T05:53:11.268Z,89.88
2019-05-09T05:54:11.268Z,90.17
2019-05-09T05:55:11.067Z,89.59
2019-05-09T05:56:11.260Z,89.4
2019-05-09T05:57:11.010Z,90.83
2019-05-09T05:58:11.300Z,91.31
2019-05-09T05:59:11.263Z,90.64
2019-05-09T06:00:11.010Z,90.45
2019-05-09T06:01:11.257Z,89.88
2019-05-09T06:02:11.382Z,90.45
2019-05-09T06:03:11.357Z,90.26
2019-05-09T06:04:11.255Z,90.07
2019-05-09T06:05:11.254Z,89.59
2019-05-09T06:06:11.485Z,90.26
2019-05-09T06:07:11.243Z,91.31
2019-05-09T06:08:10.979Z,92.07
2019-05-09T06:09:11.232Z,91.16
2019-05-09T06:10:11.235Z,91.36
2019-05-09T06:11:14.689Z,90.36
2019-05-09T06:12:11.218Z,91.21
2019-05-09T06:13:11.222Z,91.69
2019-05-09T06:14:14.244Z,91.6
2019-05-09T06:15:11.216Z,91.88
2019-05-09T06:16:11.227Z,91.6
2019-05-09T06:17:10.963Z,91.88
2019-05-09T06:18:10.946Z,92.17
2019-05-09T06:19:11.556Z,91.74
2019-05-09T06:20:11.592Z,91.21
2019-05-09T06:21:11.466Z,91.21
2019-05-09T06:22:11.211Z,91.21
2019-05-09T06:23:11.223Z,90.64
2019-05-09T06:24:11.212Z,91.21
2019-05-09T06:25:12.464Z,91.02
2019-05-09T06:26:12.806Z,91.12
2019-05-09T06:27:12.846Z,91.5
2019-05-09T06:28:11.175Z,92.02
2019-05-09T06:29:11.167Z,92.21
2019-05-09T06:30:11.272Z,91.36
2019-05-09T06:31:10.908Z,91.16
2019-05-09T06:32:10.908Z,90.78
2019-05-09T06:33:11.631Z,90.31
2019-05-09T06:34:10.895Z,90.69
2019-05-09T06:35:10.897Z,89.92
2019-05-09T06:36:11.146Z,89.92
2019-05-09T06:37:11.768Z,88.97
2019-05-09T06:38:11.140Z,88.78
2019-05-09T06:39:10.894Z,88.68
2019-05-09T06:40:10.927Z,88.2
2019-05-09T06:41:14.461Z,87.82
2019-05-09T06:42:11.527Z,87.15
2019-05-09T06:43:11.170Z,86.68
2019-05-09T06:44:20.621Z,86.3
2019-05-09T06:45:10.922Z,86.01
2019-05-09T06:46:11.120Z,85.82
2019-05-09T06:47:10.859Z,85.91
2019-05-09T06:48:10.887Z,86.77
2019-05-09T06:49:31.832Z,86.58
2019-05-09T06:50:10.850Z,86.3
2019-05-09T06:51:11.111Z,86.39
2019-05-09T06:52:11.374Z,86.68
2019-05-09T06:53:10.861Z,86.15
2019-05-09T06:54:11.098Z,82.08
2019-05-09T06:55:11.289Z,78.43
2019-05-09T06:56:11.108Z,73.88
2019-05-09T06:57:10.839Z,69.54
2019-05-09T06:58:11.422Z,65.59
2019-05-09T06:59:11.101Z,63.73
2019-05-09T07:00:10.840Z,62.32
2019-05-09T07:01:10.831Z,60.34
2019-05-09T07:02:10.840Z,59.09
2019-05-09T07:03:11.107Z,57.97
2019-05-09T07:04:11.435Z,56.81
2019-05-09T07:05:10.839Z,56.33
2019-05-09T07:06:10.846Z,56.16
2019-05-09T07:07:10.850Z,56.36
2019-05-09T07:08:10.846Z,57.48
2019-05-09T07:09:10.853Z,59.28
2019-05-09T07:10:10.847Z,60.31
2019-05-09T07:11:10.852Z,61.52
2019-05-09T07:12:10.862Z,62.55
2019-05-09T07:13:10.870Z,63.48
2019-05-09T07:14:24.908Z,65.3
2019-05-09T07:15:11.473Z,67.38
2019-05-09T07:16:11.210Z,67.15
2019-05-09T07:17:11.157Z,67.63
2019-05-09T07:18:11.136Z,70.03
2019-05-09T07:19:10.862Z,69.89
2019-05-09T07:20:11.233Z,70.66
2019-05-09T07:21:10.871Z,70.34
2019-05-09T07:22:11.662Z,70.53
2019-05-09T07:23:11.605Z,71.39
2019-05-09T07:24:10.867Z,70.62
2019-05-09T07:25:13.346Z,71.16
2019-05-09T07:26:10.864Z,72.12
2019-05-09T07:27:11.142Z,72.6
2019-05-09T07:28:10.871Z,72.5
2019-05-09T07:29:10.871Z,72.69
2019-05-09T07:30:10.869Z,73.33
2019-05-09T07:31:14.177Z,73.52
2019-05-09T07:32:10.861Z,73.9
2019-05-09T07:33:11.119Z,73.8
2019-05-09T07:34:11.158Z,74.38
2019-05-09T07:35:11.407Z,73.33
2019-05-09T07:36:10.861Z,73.52
2019-05-09T07:37:10.866Z,72.94
2019-05-09T07:38:11.219Z,72.75
2019-05-09T07:39:11.530Z,72.98
2019-05-09T07:40:11.135Z,73.8
2019-05-09T07:41:11.619Z,73.36
2019-05-09T07:42:10.860Z,72.69
2019-05-09T07:43:11.127Z,72.41
2019-05-09T07:44:10.861Z,72.41
2019-05-09T07:45:11.477Z,72.5
2019-05-09T07:46:11.562Z,73.55
2019-05-09T07:47:10.870Z,72.79
2019-05-09T07:48:11.109Z,73.27
2019-05-09T07:49:11.268Z,73.55
2019-05-09T07:50:11.244Z,73.65
2019-05-09T07:51:10.844Z,73.55
2019-05-09T07:52:12.694Z,72.98
2019-05-09T07:53:11.456Z,72.69
2019-05-09T07:54:25.579Z,73.75
2019-05-09T07:55:12.388Z,73.52
2019-05-09T07:56:11.099Z,74.38
2019-05-09T07:57:11.183Z,74.19
2019-05-09T07:58:14.146Z,73.99
2019-05-09T07:59:10.834Z,74.09
2019-05-09T08:00:11.101Z,74.28
2019-05-09T08:01:11.074Z,75.91
2019-05-09T08:02:11.402Z,75.81
2019-05-09T08:03:15.444Z,74.38
2019-05-09T08:04:10.835Z,74.57
2019-05-09T08:05:11.235Z,75.62
2019-05-09T08:06:11.488Z,76
2019-05-09T08:07:11.105Z,75.52
2019-05-09T08:08:11.108Z,75.91
2019-05-09T08:09:11.096Z,75.91
2019-05-09T08:10:13.777Z,76.2
2019-05-09T08:11:11.551Z,76.67
2019-05-09T08:12:10.807Z,76.67
2019-05-09T08:13:14.377Z,76.57
2019-05-09T08:14:13.368Z,76.29
2019-05-09T08:15:20.129Z,76.2
2019-05-09T08:16:18.570Z,76.1
2019-05-09T08:17:11.186Z,76.48
2019-05-09T08:18:11.298Z,76.2
2019-05-09T08:19:11.052Z,75.81
2019-05-09T08:20:13.617Z,75.81
2019-05-09T08:21:11.103Z,75.43
2019-05-09T08:22:11.055Z,74.66
2019-05-09T08:23:11.376Z,75.05
2019-05-09T08:24:10.784Z,74.66
2019-05-09T08:25:10.797Z,74.22
2019-05-09T08:26:11.506Z,74.41
2019-05-09T08:27:11.174Z,73.36
2019-05-09T08:28:11.701Z,73.65
2019-05-09T08:29:11.996Z,74.04
2019-05-09T08:30:10.787Z,74.32
2019-05-09T08:31:11.072Z,74.9
2019-05-09T08:32:11.044Z,75.18
2019-05-09T08:33:10.787Z,75.09
2019-05-09T08:34:11.025Z,75.18
2019-05-09T08:35:11.027Z,76.23
2019-05-09T08:36:11.574Z,76.52
2019-05-09T08:37:12.648Z,77.19
2019-05-09T08:38:10.974Z,77.38
2019-05-09T08:39:10.770Z,77.19
2019-05-09T08:40:11.015Z,76.75
2019-05-09T08:41:11.831Z,76.81
2019-05-09T08:42:11.320Z,76.81
2019-05-09T08:43:10.760Z,76.81
2019-05-09T08:44:11.010Z,77.38
2019-05-09T08:45:30.331Z,77.95
2019-05-09T08:46:10.754Z,77.28
2019-05-09T08:47:10.758Z,76.56
2019-05-09T08:48:11.717Z,75.89
2019-05-09T08:49:10.747Z,75.89
2019-05-09T08:50:11.033Z,77.23
2019-05-09T08:51:11.422Z,77.23
2019-05-09T08:52:19.771Z,76.27
2019-05-09T08:53:11.003Z,75.98
2019-05-09T08:54:11.779Z,74.55
2019-05-09T08:55:11.014Z,75.12
2019-05-09T08:56:17.642Z,75.51
2019-05-09T08:57:10.745Z,75.51
2019-05-09T08:58:11.006Z,75.89
2019-05-09T08:59:10.995Z,75.85
2019-05-09T09:00:11.005Z,76.62
2019-05-09T09:01:13.418Z,77.48
2019-05-09T09:02:24.785Z,79.49
2019-05-09T09:03:21.654Z,78.05
2019-05-09T09:04:21.601Z,78.63
2019-05-09T09:05:21.343Z,79.93
2019-05-09T09:06:22.393Z,79.73
2019-05-09T09:07:21.667Z,80.5
2019-05-09T09:08:21.579Z,81.74
2019-05-09T09:09:21.591Z,78.01
2019-05-09T09:10:21.314Z,78.07
2019-05-09T09:11:21.592Z,79.98
2019-05-09T09:12:34.573Z,81.7
2019-05-09T09:13:21.576Z,82.28
2019-05-09T09:14:21.574Z,80.93
2019-05-09T09:15:21.317Z,80.36
2019-05-09T09:16:24.950Z,80.46
2019-05-09T09:17:21.532Z,82.84
2019-05-09T09:18:21.531Z,84.09
2019-05-09T09:19:21.570Z,83.9
2019-05-09T09:20:21.297Z,84.38
2019-05-09T09:21:21.308Z,84.76
2019-05-09T09:22:21.556Z,85.14
2019-05-09T09:23:21.529Z,82.28
2019-05-09T09:24:21.551Z,81.99
2019-05-09T09:25:21.516Z,82.84
2019-05-09T09:26:21.279Z,83.61
2019-05-09T09:27:21.262Z,83.9
2019-05-09T09:28:21.260Z,83.17
2019-05-09T09:29:21.534Z,81.65
2019-05-09T09:30:29.189Z,82.22
2019-05-09T09:31:21.255Z,82.51
2019-05-09T09:32:21.592Z,83.75
2019-05-09T09:33:21.506Z,83.46
2019-05-09T09:34:21.501Z,83.56
2019-05-09T09:35:21.522Z,82.98
2019-05-09T09:36:21.504Z,82.98
2019-05-09T09:37:21.502Z,83.65
2019-05-09T09:38:21.485Z,83.27
2019-05-09T09:39:21.498Z,82.6
2019-05-09T09:40:21.252Z,83.46
2019-05-09T09:41:21.497Z,83.37
2019-05-09T09:42:22.685Z,82.98
2019-05-09T09:43:21.286Z,83.08
2019-05-09T09:44:24.969Z,82.6
2019-05-09T09:45:21.509Z,81.84
2019-05-09T09:46:21.247Z,82.31
2019-05-09T09:47:25.426Z,81.55
2019-05-09T09:48:21.474Z,81.59
2019-05-09T09:49:21.473Z,81.36
2019-05-09T09:50:21.231Z,80.06
2019-05-09T09:51:21.245Z,79.49
2019-05-09T09:52:21.223Z,80.35
2019-05-09T09:53:21.488Z,79.96
2019-05-09T09:54:21.225Z,79.68
2019-05-09T09:55:21.482Z,80.44
2019-05-09T09:56:24.876Z,79.49
2019-05-09T09:57:22.066Z,78.57
2019-05-09T09:58:21.691Z,78.19
2019-05-09T09:59:21.505Z,77.61
2019-05-09T10:00:21.471Z,77.17
2019-05-09T10:01:21.218Z,78.13
2019-05-09T10:02:21.216Z,75.45
2019-05-09T10:03:21.524Z,74.24
2019-05-09T10:04:28.342Z,74.91
2019-05-09T10:05:21.487Z,74.24
2019-05-09T10:06:21.471Z,74.62
2019-05-09T10:07:21.515Z,73.9
2019-05-09T10:08:21.216Z,72.27
2019-05-09T10:09:21.458Z,71.98
2019-05-09T10:10:21.465Z,70.83
2019-05-09T10:11:21.459Z,70.44
2019-05-09T10:12:21.458Z,71.78
2019-05-09T10:13:21.356Z,72.27
2019-05-09T10:14:21.473Z,70.92
2019-05-09T10:15:21.470Z,70.06
2019-05-09T10:16:32.578Z,71.02
2019-05-09T10:17:23.977Z,71.75
2019-05-09T10:18:21.209Z,71.84
2019-05-09T10:19:21.202Z,71.37
2019-05-09T10:20:21.449Z,71.31
2019-05-09T10:21:21.462Z,71.78
2019-05-09T10:22:27.272Z,71.21
2019-05-09T10:23:24.094Z,71.59
2019-05-09T10:24:21.459Z,71.98
2019-05-09T10:25:21.207Z,71.5
2019-05-09T10:26:21.209Z,71.02
2019-05-09T10:27:21.442Z,70.54
2019-05-09T10:28:24.115Z,70.73
2019-05-09T10:29:21.448Z,71.78
2019-05-09T10:30:21.447Z,70.64
2019-05-09T10:31:21.528Z,71.31
2019-05-09T10:32:21.208Z,71.78
2019-05-09T10:33:21.446Z,71.69
2019-05-09T10:34:21.196Z,71.59
2019-05-09T10:35:21.204Z,71.11
2019-05-09T10:36:21.216Z,72.45
2019-05-09T10:37:21.446Z,71.69
2019-05-09T10:38:21.445Z,71.11
2019-05-09T10:39:21.446Z,71.15
2019-05-09T10:40:21.634Z,70.57
2019-05-09T10:41:21.468Z,70.76
2019-05-09T10:42:21.455Z,68.46
2019-05-09T10:43:38.939Z,68.56
2019-05-09T10:44:21.233Z,70.23
2019-05-09T10:45:21.450Z,70
2019-05-09T10:46:21.800Z,68.66
2019-05-09T10:47:21.928Z,69.81
2019-05-09T10:48:28.259Z,70
2019-05-09T10:49:21.445Z,69.13
2019-05-09T10:50:21.474Z,68.3
2019-05-09T10:51:21.202Z,66.86
2019-05-09T10:52:21.452Z,67.19
2019-05-09T10:53:21.205Z,66.52
2019-05-09T10:54:21.457Z,64.98
2019-05-09T10:55:21.447Z,64.02
2019-05-09T10:56:21.607Z,63.09
2019-05-09T10:57:21.211Z,63.28
2019-05-09T10:58:27.883Z,63.09
2019-05-09T10:59:21.205Z,62.61
2019-05-09T11:00:21.455Z,62.99
2019-05-09T11:01:21.218Z,61.4
2019-05-09T11:02:21.212Z,60.91
2019-05-09T11:03:21.493Z,61.01
2019-05-09T11:04:21.453Z,61.11
2019-05-09T11:05:21.451Z,60.05
2019-05-09T11:06:21.461Z,60.05
2019-05-09T11:07:21.213Z,59.09
2019-05-09T11:08:21.461Z,58.83
2019-05-09T11:09:21.463Z,58.73
2019-05-09T11:10:32.737Z,56.84
2019-05-09T11:11:21.296Z,57.29
2019-05-09T11:12:21.459Z,56.52
2019-05-09T11:13:21.508Z,57
2019-05-09T11:14:37.374Z,57.29
2019-05-09T11:15:21.464Z,56.4
2019-05-09T11:16:21.469Z,57.75
2019-05-09T11:17:24.278Z,59.44
2019-05-09T11:18:21.472Z,59.54
2019-05-09T11:19:21.470Z,59.73
2019-05-09T11:20:22.028Z,59.64
2019-05-09T11:21:22.024Z,58
2019-05-09T11:22:23.399Z,58.87
2019-05-09T11:23:21.839Z,58.96
2019-05-09T11:24:36.936Z,59.32
2019-05-09T11:25:21.233Z,60.28
2019-05-09T11:26:21.481Z,61.05
2019-05-09T11:27:21.487Z,60.38
2019-05-09T11:28:21.846Z,61.02
2019-05-09T11:29:21.493Z,60.95
2019-05-09T11:30:21.480Z,61.21
2019-05-09T11:31:21.748Z,61.11
2019-05-09T11:32:21.519Z,62.07
2019-05-09T11:33:21.491Z,62.52
2019-05-09T11:34:21.486Z,63.29
2019-05-09T11:35:21.503Z,63.19
2019-05-09T11:36:23.695Z,63.29
2019-05-09T11:37:24.647Z,64.63
2019-05-09T11:38:43.299Z,64.12
2019-05-09T11:39:41.842Z,65.36
2019-05-09T11:40:21.481Z,66.03
2019-05-09T11:41:22.128Z,66.22
2019-05-09T11:42:21.494Z,65.55
2019-05-09T11:43:21.524Z,65.84
2019-05-09T11:44:21.501Z,65.65
2019-05-09T11:45:21.227Z,65.55
2019-05-09T11:46:21.479Z,65.65
2019-05-09T11:47:42.312Z,65.94
2019-05-09T11:48:21.479Z,65.55
2019-05-09T11:49:21.236Z,66.61
2019-05-09T11:50:25.501Z,67.76
2019-05-09T11:51:25.113Z,67.76
2019-05-09T11:52:21.476Z,69.17
2019-05-09T11:53:21.531Z,70.6
2019-05-09T11:54:22.036Z,71.17
2019-05-09T11:55:36.499Z,71.84
2019-05-09T11:56:21.225Z,72.13
2019-05-09T11:57:21.701Z,72.23
2019-05-09T11:58:21.524Z,70.47
2019-05-09T11:59:21.299Z,70.95
2019-05-09T12:00:21.472Z,73.63
2019-05-09T12:01:21.753Z,75.07
2019-05-09T12:02:21.466Z,74.77
2019-05-09T12:03:21.469Z,74.97
2019-05-09T12:04:21.473Z,75.26
2019-05-09T12:05:21.783Z,75.45
2019-05-09T12:06:22.721Z,75.64
2019-05-09T12:07:21.476Z,77.13
2019-05-09T12:08:21.462Z,77.51
2019-05-09T12:09:21.474Z,77.42
2019-05-09T12:10:21.456Z,78.09
2019-05-09T12:11:21.495Z,79.43
2019-05-09T12:12:22.037Z,79.52
2019-05-09T12:13:21.581Z,80.54
2019-05-09T12:14:21.457Z,80.29
2019-05-09T12:15:21.450Z,79.43
2019-05-09T12:16:21.450Z,81.11
2019-05-09T12:17:22.218Z,81.68
2019-05-09T12:18:21.202Z,79.87
2019-05-09T12:19:21.449Z,79.1
2019-05-09T12:20:21.203Z,81.02
2019-05-09T12:21:22.048Z,79.77
2019-05-09T12:22:21.809Z,80.63
2019-05-09T12:23:22.470Z,80.82
2019-05-09T12:24:21.488Z,81.05
2019-05-09T12:25:21.440Z,81.02
2019-05-09T12:26:21.437Z,81.78
2019-05-09T12:27:21.498Z,81.05
2019-05-09T12:28:22.598Z,81.05
2019-05-09T12:29:22.221Z,81.92
2019-05-09T12:30:21.490Z,81.82
2019-05-09T12:31:21.435Z,81.82
2019-05-09T12:32:21.442Z,81.34
2019-05-09T12:33:21.424Z,80.19
2019-05-09T12:34:21.747Z,79.28
2019-05-09T12:35:21.644Z,80.1
2019-05-09T12:36:21.849Z,79.14
2019-05-09T12:37:21.173Z,78.89
2019-05-09T12:38:21.410Z,79.43
2019-05-09T12:39:21.508Z,78.99
2019-05-09T12:40:22.614Z,77.94
2019-05-09T12:41:21.811Z,78.03
2019-05-09T12:42:21.579Z,78.7
2019-05-09T12:43:21.463Z,77.75
2019-05-09T12:44:24.691Z,78.19
2019-05-09T12:45:21.417Z,77.84
2019-05-09T12:46:21.418Z,77.94
2019-05-09T12:47:21.665Z,77.55
2019-05-09T12:48:22.089Z,77.26
2019-05-09T12:49:21.695Z,77.36
2019-05-09T12:50:21.159Z,76.4
2019-05-09T12:51:21.169Z,76.69
2019-05-09T12:52:21.175Z,77.84
2019-05-09T12:53:21.455Z,75.54
2019-05-09T12:54:21.649Z,75.45